Time;durP1;ratioP1;P1;durP2;ratioP2;P2;SDS_P1;SDS_P2;PMS_P1;PMS_P2;Temp;Humidity;BMP_temperature;BMP_pressure;BME280_temperature;BME280_humidity;BME280_pressure;Samples;Min_cycle;Max_cycle;Signal;HPM_P1;HPM_P2
2022/07/30 00:02:49;;;;;;;3.42;2.40;;;;;;;;;;10226372;29;20419;-96
2022/07/30 00:07:54;;;;;;;2.80;2.40;;;;;;;;;;10252958;28;20431;-96
2022/07/30 00:12:57;;;;;;;2.90;2.23;;;;;;;;;;10253400;29;20492;-96
2022/07/30 00:18:00;;;;;;;2.47;2.25;;;;;;;;;;10254666;28;20463;-96
2022/07/30 00:23:04;;;;;;;3.30;2.53;;;;;;;;;;10254292;28;20419;-96
2022/07/30 00:28:07;;;;;;;4.47;2.67;;;;;;;;;;10237998;29;20435;-96
2022/07/30 00:33:09;;;;;;;2.67;2.47;;;;;;;;;;10254257;29;20416;-95
2022/07/30 00:38:13;;;;;;;2.80;2.50;;;;;;;;;;10258498;29;21007;-96
2022/07/30 00:43:16;;;;;;;2.72;2.53;;;;;;;;;;10250855;28;20854;-95
2022/07/30 00:48:19;;;;;;;3.05;2.72;;;;;;;;;;10248852;29;20428;-96
2022/07/30 00:53:23;;;;;;;2.83;2.60;;;;;;;;;;10248914;28;20440;-96
2022/07/30 00:58:26;;;;;;;3.40;2.60;;;;;;;;;;10227681;29;20971;-96
2022/07/30 01:03:29;;;;;;;4.75;2.97;;;;;;;;;;10251407;29;20412;-96
2022/07/30 01:08:32;;;;;;;5.18;3.10;;;;;;;;;;10245267;28;20424;-96
2022/07/30 01:13:34;;;;;;;4.88;3.20;;;;;;;;;;10247724;29;20467;-96
2022/07/30 01:24:18;;;;;;;3.70;2.83;;;;;;;;;;10244696;28;20499;-96
2022/07/30 01:29:24;;;;;;;2.75;2.53;;;;;;;;;;10250455;29;20770;-95
2022/07/30 01:34:28;;;;;;;3.42;2.83;;;;;;;;;;10277002;28;20443;-94
2022/07/30 01:39:31;;;;;;;3.40;2.80;;;;;;;;;;10271481;28;20425;-95
2022/07/30 01:44:36;;;;;;;3.80;2.60;;;;;;;;;;10253503;29;20451;-94
2022/07/30 01:49:40;;;;;;;3.30;2.22;;;;;;;;;;10250496;28;20801;-95
2022/07/30 01:54:45;;;;;;;3.45;2.20;;;;;;;;;;10251735;28;20773;-96
2022/07/30 01:59:52;;;;;;;2.30;2.10;;;;;;;;;;10251252;29;20423;-96
2022/07/30 02:04:54;;;;;;;3.35;2.22;;;;;;;;;;10250927;28;20420;-94
2022/07/30 02:10:03;;;;;;;4.63;2.40;;;;;;;;;;10274104;28;20459;-94
2022/07/30 02:15:16;;;;;;;3.00;2.20;;;;;;;;;;10278543;28;20420;-95
2022/07/30 02:20:19;;;;;;;3.10;2.33;;;;;;;;;;10265145;29;20561;-95
2022/07/30 02:25:21;;;;;;;2.55;2.35;;;;;;;;;;10251003;28;20427;-94
2022/07/30 02:30:27;;;;;;;3.25;2.50;;;;;;;;;;10249877;29;20479;-95
2022/07/30 02:35:31;;;;;;;2.88;2.50;;;;;;;;;;10244627;28;20428;-94
2022/07/30 02:40:33;;;;;;;3.10;2.80;;;;;;;;;;10247789;28;20424;-94
2022/07/30 02:45:38;;;;;;;3.55;2.70;;;;;;;;;;10248905;29;20506;-95
2022/07/30 02:50:40;;;;;;;3.30;2.57;;;;;;;;;;10245416;29;20416;-95
2022/07/30 02:55:43;;;;;;;5.82;2.95;;;;;;;;;;10247649;28;20416;-95
2022/07/30 03:00:48;;;;;;;3.90;3.13;;;;;;;;;;10247950;28;20420;-95
2022/07/30 03:05:52;;;;;;;3.85;2.83;;;;;;;;;;10250378;28;20428;-93
2022/07/30 03:10:56;;;;;;;3.40;2.83;;;;;;;;;;10248057;28;20412;-96
2022/07/30 03:16:02;;;;;;;4.13;3.00;;;;;;;;;;10234917;29;20907;-95
2022/07/30 03:21:08;;;;;;;4.07;2.90;;;;;;;;;;10246716;28;20920;-96
2022/07/30 03:26:12;;;;;;;5.50;3.20;;;;;;;;;;10247778;28;20424;-96
2022/07/30 03:31:16;;;;;;;4.70;3.50;;;;;;;;;;10247033;28;20446;-95
2022/07/30 03:36:19;;;;;;;5.07;3.40;;;;;;;;;;10247521;28;20480;-95
2022/07/30 03:41:22;;;;;;;4.50;3.87;;;;;;;;;;10239733;29;20428;-94
2022/07/30 03:46:28;;;;;;;5.27;4.17;;;;;;;;;;10245265;28;20920;-93
2022/07/30 03:51:30;;;;;;;5.30;4.47;;;;;;;;;;10225439;28;20416;-94
2022/07/30 03:56:34;;;;;;;7.25;4.95;;;;;;;;;;10248989;28;20420;-96
2022/07/30 04:01:38;;;;;;;5.32;4.55;;;;;;;;;;10273987;28;20403;-95
2022/07/30 04:06:41;;;;;;;5.30;4.80;;;;;;;;;;10292436;28;20411;-95
2022/07/30 04:11:44;;;;;;;6.50;5.00;;;;;;;;;;10292022;28;20408;-94
2022/07/30 04:16:51;;;;;;;4.80;3.65;;;;;;;;;;10292677;28;20416;-95
2022/07/30 04:21:55;;;;;;;3.90;3.50;;;;;;;;;;10291936;28;20513;-94
2022/07/30 04:26:59;;;;;;;3.08;2.78;;;;;;;;;;10292594;28;20411;-95
2022/07/30 04:32:03;;;;;;;3.72;3.33;;;;;;;;;;10289629;28;20408;-96
2022/07/30 04:37:05;;;;;;;2.95;2.75;;;;;;;;;;10248465;28;20471;-95
2022/07/30 04:42:08;;;;;;;3.65;2.85;;;;;;;;;;10247975;28;20805;-95
2022/07/30 04:47:12;;;;;;;3.57;2.57;;;;;;;;;;10248197;28;20494;-96
2022/07/30 04:52:15;;;;;;;4.23;2.90;;;;;;;;;;10246058;29;20440;-95
2022/07/30 04:57:19;;;;;;;3.75;2.45;;;;;;;;;;10244877;28;20436;-95
2022/07/30 05:02:24;;;;;;;3.97;2.58;;;;;;;;;;10252068;28;20821;-94
2022/07/30 05:07:29;;;;;;;3.83;2.70;;;;;;;;;;10245515;29;20429;-95
2022/07/30 05:12:36;;;;;;;4.27;2.67;;;;;;;;;;10257478;28;20817;-95
2022/07/30 05:17:44;;;;;;;4.13;3.00;;;;;;;;;;10283722;28;20506;-95
2022/07/30 05:22:50;;;;;;;4.22;3.10;;;;;;;;;;10269009;28;20600;-95
2022/07/30 05:27:52;;;;;;;3.00;2.70;;;;;;;;;;10251639;29;20424;-95
2022/07/30 05:32:56;;;;;;;4.13;2.90;;;;;;;;;;10240137;28;20422;-95
2022/07/30 05:37:59;;;;;;;4.13;3.20;;;;;;;;;;10247177;28;20416;-96
2022/07/30 05:43:01;;;;;;;4.35;3.55;;;;;;;;;;10249956;28;20443;-95
2022/07/30 05:48:05;;;;;;;4.55;3.53;;;;;;;;;;10249297;29;20424;-95
2022/07/30 05:53:07;;;;;;;3.37;2.90;;;;;;;;;;10249476;28;20525;-95
2022/07/30 05:58:09;;;;;;;5.60;3.70;;;;;;;;;;10248783;29;20428;-94
2022/07/30 06:03:13;;;;;;;4.05;3.65;;;;;;;;;;10248491;29;20423;-93
2022/07/30 06:08:15;;;;;;;4.38;3.80;;;;;;;;;;10249136;28;20701;-95
2022/07/30 06:13:19;;;;;;;4.60;3.80;;;;;;;;;;10249115;28;20483;-96
2022/07/30 06:18:22;;;;;;;4.88;3.38;;;;;;;;;;10249525;29;20424;-95
2022/07/30 06:23:24;;;;;;;5.03;3.40;;;;;;;;;;10249086;29;20456;-96
2022/07/30 06:28:26;;;;;;;5.03;3.40;;;;;;;;;;10256685;29;20451;-96
2022/07/30 06:33:30;;;;;;;5.13;3.70;;;;;;;;;;10257496;29;20420;-94
2022/07/30 06:38:31;;;;;;;4.63;3.70;;;;;;;;;;10247373;28;20501;-95
2022/07/30 06:43:34;;;;;;;3.85;3.33;;;;;;;;;;10245896;28;21108;-94
2022/07/30 06:48:37;;;;;;;4.85;4.35;;;;;;;;;;10245234;29;20451;-94
2022/07/30 06:53:39;;;;;;;5.87;5.27;;;;;;;;;;10238123;28;20526;-95
2022/07/30 06:58:42;;;;;;;4.32;3.92;;;;;;;;;;10246312;28;20463;-95
2022/07/30 07:03:45;;;;;;;4.88;4.43;;;;;;;;;;10242194;29;20448;-92
2022/07/30 07:08:47;;;;;;;5.77;4.60;;;;;;;;;;10245243;28;20432;-92
2022/07/30 07:13:49;;;;;;;5.27;4.03;;;;;;;;;;10256028;28;20420;-92
2022/07/30 07:18:52;;;;;;;6.53;4.60;;;;;;;;;;10245978;28;20435;-93
2022/07/30 07:23:54;;;;;;;7.43;5.32;;;;;;;;;;10245264;28;20499;-92
2022/07/30 07:28:56;;;;;;;6.80;4.38;;;;;;;;;;10245887;29;20987;-91
2022/07/30 07:33:59;;;;;;;4.30;3.65;;;;;;;;;;10244795;28;20448;-91
2022/07/30 07:39:01;;;;;;;5.32;4.53;;;;;;;;;;10245840;29;20498;-91
2022/07/30 07:44:04;;;;;;;6.57;4.45;;;;;;;;;;10244821;29;20416;-91
2022/07/30 07:49:07;;;;;;;6.17;4.70;;;;;;;;;;10232932;28;20427;-91
2022/07/30 07:54:09;;;;;;;5.13;4.40;;;;;;;;;;10245505;28;20515;-92
2022/07/30 07:59:11;;;;;;;5.07;4.57;;;;;;;;;;10245009;28;20499;-93
2022/07/30 08:04:14;;;;;;;4.95;4.47;;;;;;;;;;10245528;28;20483;-93
2022/07/30 08:09:16;;;;;;;5.60;4.60;;;;;;;;;;10248967;29;20783;-92
2022/07/30 08:14:18;;;;;;;4.97;3.60;;;;;;;;;;10259916;29;20420;-91
2022/07/30 08:19:21;;;;;;;4.20;3.80;;;;;;;;;;10241148;29;20464;-93
2022/07/30 08:24:23;;;;;;;4.80;3.97;;;;;;;;;;10233753;28;20507;-93
2022/07/30 08:29:25;;;;;;;5.50;3.90;;;;;;;;;;10241600;28;20517;-91
2022/07/30 08:34:29;;;;;;;4.20;3.80;;;;;;;;;;10246092;28;20424;-92
2022/07/30 08:39:31;;;;;;;5.72;3.58;;;;;;;;;;10263475;28;20422;-93
2022/07/30 08:44:35;;;;;;;4.38;3.63;;;;;;;;;;10252997;28;20420;-93
2022/07/30 08:49:39;;;;;;;4.15;3.60;;;;;;;;;;10252315;29;20861;-94
2022/07/30 08:54:41;;;;;;;4.22;2.83;;;;;;;;;;10254830;28;20423;-95
2022/07/30 08:59:44;;;;;;;4.18;2.90;;;;;;;;;;10267240;28;20416;-94
2022/07/30 09:04:47;;;;;;;3.35;3.05;;;;;;;;;;10257916;28;20750;-93
2022/07/30 09:09:49;;;;;;;3.00;2.58;;;;;;;;;;10246395;29;20519;-94
2022/07/30 09:15:02;;;;;;;3.70;3.25;;;;;;;;;;10242727;28;20501;-94
2022/07/30 09:20:08;;;;;;;5.22;3.92;;;;;;;;;;10247100;28;20511;-95
2022/07/30 09:25:10;;;;;;;3.42;2.60;;;;;;;;;;10247919;28;20931;-94
2022/07/30 09:30:12;;;;;;;2.67;2.38;;;;;;;;;;10250967;28;20766;-94
2022/07/30 09:35:16;;;;;;;3.80;2.70;;;;;;;;;;10251443;28;20508;-94
2022/07/30 09:40:19;;;;;;;3.30;2.50;;;;;;;;;;10248827;28;20420;-92
2022/07/30 09:45:21;;;;;;;2.70;2.50;;;;;;;;;;10246458;28;20412;-94
2022/07/30 09:50:25;;;;;;;2.50;1.88;;;;;;;;;;10249275;29;20434;-94
2022/07/30 09:55:33;;;;;;;3.80;2.60;;;;;;;;;;10249466;28;20555;-94
2022/07/30 10:00:36;;;;;;;2.70;2.42;;;;;;;;;;10246843;28;20474;-86
2022/07/30 10:05:49;;;;;;;2.17;2.00;;;;;;;;;;10241856;28;20440;-86
2022/07/30 10:10:51;;;;;;;4.50;2.38;;;;;;;;;;10241137;28;20520;-86
2022/07/30 10:15:53;;;;;;;3.08;2.30;;;;;;;;;;10241305;28;20435;-87
2022/07/30 10:20:57;;;;;;;2.88;2.15;;;;;;;;;;10241735;28;20786;-86
2022/07/30 10:25:59;;;;;;;1.80;1.70;;;;;;;;;;10242281;28;20408;-80
2022/07/30 10:36:13;;;;;;;2.30;2.10;;;;;;;;;;10369164;23;20874;-83
2022/07/30 11:27:55;;;;;;;2.78;1.90;;;;;;;;;;10969523;23;20557;-90
2022/07/30 11:33:17;;;;;;;2.30;2.03;;;;;;;;;;10241533;28;20908;-95
2022/07/30 11:38:20;;;;;;;2.80;2.20;;;;;;;;;;10243621;28;20487;-94
2022/07/30 11:43:24;;;;;;;2.10;1.90;;;;;;;;;;10247496;28;20541;-88
2022/07/30 11:48:26;;;;;;;1.90;1.80;;;;;;;;;;10238327;28;20435;-88
2022/07/30 11:53:28;;;;;;;3.83;3.00;;;;;;;;;;10234177;28;20498;-86
2022/07/30 11:58:34;;;;;;;2.40;1.70;;;;;;;;;;10248057;28;20502;-85
2022/07/30 12:03:41;;;;;;;2.00;1.80;;;;;;;;;;10246850;29;20415;-91
2022/07/30 12:08:44;;;;;;;1.70;1.60;;;;;;;;;;10238089;28;21007;-93
2022/07/30 12:13:58;;;;;;;2.63;1.60;;;;;;;;;;10239110;28;20479;-90
2022/07/30 12:19:06;;;;;;;1.95;1.58;;;;;;;;;;10235937;28;20508;-89
2022/07/30 12:24:08;;;;;;;1.40;1.30;;;;;;;;;;10239526;28;20408;-87
2022/07/30 12:29:13;;;;;;;1.95;1.70;;;;;;;;;;10238312;28;20436;-78
2022/07/30 12:34:22;;;;;;;2.47;1.70;;;;;;;;;;10237466;28;20448;-88
2022/07/30 12:39:26;;;;;;;2.40;1.70;;;;;;;;;;10237500;28;20750;-77
2022/07/30 12:44:51;;;;;;;1.70;1.60;;;;;;;;;;10262521;29;20435;-82
2022/07/30 12:55:07;;;;;;;1.60;1.50;;;;;;;;;;10795891;23;20436;-89
2022/07/30 13:11:17;;;;;;;2.00;1.90;;;;;;;;;;10244760;29;20421;-96
2022/07/30 13:16:20;;;;;;;2.78;1.92;;;;;;;;;;10459174;23;20456;-83
2022/07/30 13:21:23;;;;;;;2.20;2.00;;;;;;;;;;10205626;29;20501;-90
2022/07/30 13:26:28;;;;;;;2.60;2.20;;;;;;;;;;10212014;29;20510;-91
2022/07/30 13:31:30;;;;;;;2.17;1.80;;;;;;;;;;10224353;29;20436;-90
2022/07/30 13:36:32;;;;;;;2.00;1.90;;;;;;;;;;10220032;29;20513;-90
2022/07/30 13:41:35;;;;;;;2.33;1.90;;;;;;;;;;10208674;29;20454;-89
2022/07/30 13:46:38;;;;;;;4.07;2.13;;;;;;;;;;10216569;29;20441;-88
2022/07/30 13:51:40;;;;;;;2.35;2.10;;;;;;;;;;10204847;29;20466;-91
2022/07/30 13:56:43;;;;;;;2.05;1.95;;;;;;;;;;10208800;29;20894;-90
2022/07/30 14:01:45;;;;;;;2.05;1.90;;;;;;;;;;10205032;29;20922;-91
2022/07/30 14:06:47;;;;;;;2.00;1.80;;;;;;;;;;10203680;29;20513;-90
2022/07/30 14:11:51;;;;;;;2.08;1.83;;;;;;;;;;10207145;29;20513;-91
2022/07/30 14:16:53;;;;;;;2.35;2.05;;;;;;;;;;10206342;29;20475;-91
2022/07/30 14:21:55;;;;;;;2.30;2.10;;;;;;;;;;10202997;29;20744;-91
2022/07/30 14:26:58;;;;;;;4.25;1.90;;;;;;;;;;10202132;29;20486;-91
2022/07/30 14:32:00;;;;;;;4.15;2.80;;;;;;;;;;10196960;29;20461;-90
2022/07/30 14:37:02;;;;;;;2.47;1.73;;;;;;;;;;10201431;29;20446;-90
2022/07/30 14:42:06;;;;;;;2.03;1.83;;;;;;;;;;10201585;29;20416;-89
2022/07/30 14:47:08;;;;;;;1.98;1.77;;;;;;;;;;10200908;29;20438;-91
2022/07/30 14:52:10;;;;;;;1.83;1.73;;;;;;;;;;10200405;29;20465;-90
2022/07/30 14:57:13;;;;;;;1.80;1.70;;;;;;;;;;10200756;29;20414;-90
2022/07/30 15:02:15;;;;;;;2.08;1.52;;;;;;;;;;10200975;29;20560;-91
2022/07/30 15:07:17;;;;;;;1.80;1.50;;;;;;;;;;10201228;29;20541;-91
2022/07/30 15:12:20;;;;;;;2.40;1.60;;;;;;;;;;10200133;29;20436;-90
2022/07/30 15:17:22;;;;;;;3.50;1.33;;;;;;;;;;10199669;29;20839;-90
2022/07/30 15:22:24;;;;;;;2.90;1.75;;;;;;;;;;10199919;29;20526;-89
2022/07/30 15:27:27;;;;;;;2.45;1.70;;;;;;;;;;10200263;29;20970;-91
2022/07/30 15:32:29;;;;;;;1.77;1.67;;;;;;;;;;10196455;29;20513;-89
2022/07/30 15:37:31;;;;;;;1.95;1.08;;;;;;;;;;10200194;29;20815;-90
2022/07/30 15:42:35;;;;;;;1.17;1.07;;;;;;;;;;10199382;29;20421;-89
2022/07/30 15:47:36;;;;;;;1.60;1.30;;;;;;;;;;10199173;29;20505;-91
2022/07/30 15:52:38;;;;;;;1.55;1.23;;;;;;;;;;10199691;29;20453;-90
2022/07/30 15:57:42;;;;;;;2.15;1.40;;;;;;;;;;10199448;29;20492;-90
2022/07/30 16:02:44;;;;;;;1.30;1.10;;;;;;;;;;10198513;29;20505;-90
2022/07/30 16:07:46;;;;;;;2.97;2.30;;;;;;;;;;10198485;29;20501;-90
2022/07/30 16:12:49;;;;;;;2.65;2.45;;;;;;;;;;10198260;29;20536;-90
2022/07/30 16:17:51;;;;;;;2.80;2.60;;;;;;;;;;10197999;29;20452;-88
2022/07/30 16:22:53;;;;;;;2.78;2.58;;;;;;;;;;10199748;29;20449;-90
2022/07/30 16:27:56;;;;;;;3.67;2.87;;;;;;;;;;10197230;29;20444;-90
2022/07/30 16:32:58;;;;;;;5.47;2.45;;;;;;;;;;10194198;29;20452;-89
2022/07/30 16:38:01;;;;;;;3.10;2.67;;;;;;;;;;10198297;29;20555;-90
2022/07/30 16:43:06;;;;;;;2.38;2.17;;;;;;;;;;10197520;29;20413;-90
2022/07/30 16:48:08;;;;;;;2.67;2.20;;;;;;;;;;10197463;29;20478;-90
2022/07/30 16:53:10;;;;;;;2.78;2.47;;;;;;;;;;10197700;29;20501;-91
2022/07/30 16:58:14;;;;;;;3.22;2.30;;;;;;;;;;10205856;29;20822;-92
2022/07/30 17:03:16;;;;;;;3.42;2.47;;;;;;;;;;10205401;29;20973;-89
2022/07/30 17:08:18;;;;;;;3.33;2.03;;;;;;;;;;10205320;29;20504;-91
2022/07/30 17:13:21;;;;;;;1.90;1.50;;;;;;;;;;10204200;29;20501;-91
2022/07/30 17:18:23;;;;;;;1.73;1.50;;;;;;;;;;10203829;29;20414;-90
2022/07/30 17:23:25;;;;;;;3.15;1.50;;;;;;;;;;10204313;29;20485;-91
2022/07/30 17:28:28;;;;;;;5.30;1.40;;;;;;;;;;10195708;29;20457;-91
2022/07/30 17:33:30;;;;;;;2.08;1.10;;;;;;;;;;10200314;29;21149;-90
2022/07/30 17:38:32;;;;;;;2.60;1.20;;;;;;;;;;10202937;29;20843;-90
2022/07/30 17:43:36;;;;;;;2.07;1.20;;;;;;;;;;10204605;29;20449;-91
2022/07/30 17:48:37;;;;;;;1.85;1.00;;;;;;;;;;10203815;29;20518;-90
2022/07/30 17:53:39;;;;;;;1.13;0.90;;;;;;;;;;10203550;29;20434;-91
2022/07/30 17:58:43;;;;;;;2.07;1.10;;;;;;;;;;10203683;29;20406;-89
2022/07/30 18:03:45;;;;;;;1.13;0.87;;;;;;;;;;10203988;29;20517;-90
2022/07/30 18:08:46;;;;;;;2.63;1.05;;;;;;;;;;10202031;29;20516;-90
2022/07/30 18:13:50;;;;;;;0.80;0.80;;;;;;;;;;10203551;29;20446;-92
2022/07/30 18:18:52;;;;;;;1.17;0.95;;;;;;;;;;10202342;29;20480;-90
2022/07/30 18:23:54;;;;;;;1.30;1.10;;;;;;;;;;10202208;29;20497;-90
2022/07/30 18:28:57;;;;;;;1.05;0.98;;;;;;;;;;10201399;29;20418;-90
2022/07/30 18:33:59;;;;;;;1.80;0.98;;;;;;;;;;10201975;29;20437;-89
2022/07/30 18:39:01;;;;;;;2.20;1.42;;;;;;;;;;10202868;29;20450;-90
2022/07/30 18:44:04;;;;;;;2.15;1.15;;;;;;;;;;10204948;29;20901;-89
2022/07/30 18:49:06;;;;;;;1.73;1.08;;;;;;;;;;10237876;28;20457;-89
2022/07/30 18:54:08;;;;;;;3.23;1.10;;;;;;;;;;10224386;28;20418;-90
2022/07/30 18:59:12;;;;;;;1.70;1.30;;;;;;;;;;10202277;29;20898;-89
2022/07/30 19:04:16;;;;;;;2.25;1.25;;;;;;;;;;10201448;29;20473;-90
2022/07/30 19:09:18;;;;;;;1.42;1.20;;;;;;;;;;10201085;29;20791;-89
2022/07/30 19:14:22;;;;;;;1.70;1.33;;;;;;;;;;10201137;29;20808;-90
2022/07/30 19:19:24;;;;;;;2.28;1.30;;;;;;;;;;10200738;29;20473;-91
2022/07/30 19:24:26;;;;;;;2.83;1.58;;;;;;;;;;10200455;29;20926;-90
2022/07/30 19:29:29;;;;;;;2.10;1.37;;;;;;;;;;10200299;29;20428;-89
2022/07/30 19:34:31;;;;;;;2.43;1.30;;;;;;;;;;10199546;29;20485;-89
2022/07/30 19:39:33;;;;;;;2.20;1.30;;;;;;;;;;10200412;29;20904;-90
2022/07/30 19:44:36;;;;;;;2.42;1.30;;;;;;;;;;10200101;29;20418;-90
2022/07/30 19:49:39;;;;;;;1.30;1.20;;;;;;;;;;10200401;29;20516;-90
2022/07/30 19:54:41;;;;;;;2.50;1.20;;;;;;;;;;10199655;29;20421;-88
2022/07/30 19:59:44;;;;;;;2.50;1.20;;;;;;;;;;10199492;29;20449;-90
2022/07/30 20:04:46;;;;;;;2.08;1.30;;;;;;;;;;10198819;29;20924;-90
2022/07/30 20:09:48;;;;;;;1.60;1.13;;;;;;;;;;10199167;29;20425;-91
2022/07/30 20:14:52;;;;;;;2.53;1.30;;;;;;;;;;10199290;29;20441;-90
2022/07/30 20:19:55;;;;;;;2.58;1.27;;;;;;;;;;10199224;29;20429;-89
2022/07/30 20:24:57;;;;;;;1.70;1.20;;;;;;;;;;10199430;29;20425;-91
2022/07/30 20:30:01;;;;;;;2.07;1.30;;;;;;;;;;10197920;29;20524;-89
2022/07/30 20:35:03;;;;;;;1.92;1.40;;;;;;;;;;10208171;29;20637;-90
2022/07/30 20:40:07;;;;;;;2.80;1.50;;;;;;;;;;10206328;29;20409;-91
2022/07/30 20:45:12;;;;;;;2.63;1.48;;;;;;;;;;10206328;29;20845;-91
2022/07/30 20:50:14;;;;;;;2.70;1.67;;;;;;;;;;10206089;29;20513;-91
2022/07/30 20:55:16;;;;;;;1.48;1.38;;;;;;;;;;10206329;29;20441;-90
2022/07/30 21:00:19;;;;;;;3.27;1.70;;;;;;;;;;10206735;29;20405;-90
2022/07/30 21:05:21;;;;;;;2.95;1.98;;;;;;;;;;10205739;29;20418;-90
2022/07/30 21:10:24;;;;;;;2.33;1.80;;;;;;;;;;10205378;29;20974;-90
2022/07/30 21:15:28;;;;;;;4.38;1.88;;;;;;;;;;10204580;29;20422;-90
2022/07/30 21:20:30;;;;;;;2.00;1.90;;;;;;;;;;10205202;29;20894;-90
2022/07/30 21:25:32;;;;;;;3.80;2.70;;;;;;;;;;10205306;29;20448;-90
2022/07/30 21:30:36;;;;;;;3.20;2.27;;;;;;;;;;10205249;29;20425;-90
2022/07/30 21:35:38;;;;;;;4.97;2.30;;;;;;;;;;10205081;29;20418;-92
2022/07/30 21:40:40;;;;;;;3.05;2.40;;;;;;;;;;10204124;29;20421;-91
2022/07/30 21:45:43;;;;;;;3.77;2.10;;;;;;;;;;10204925;29;20453;-89
2022/07/30 21:50:45;;;;;;;4.90;2.10;;;;;;;;;;10204618;29;20472;-90
2022/07/30 21:55:47;;;;;;;2.00;1.80;;;;;;;;;;10204082;29;20421;-91
2022/07/30 22:01:02;;;;;;;3.80;2.03;;;;;;;;;;10204441;29;21580;-91
2022/07/30 22:06:04;;;;;;;4.67;1.80;;;;;;;;;;10200735;29;20523;-87
2022/07/30 22:11:07;;;;;;;4.18;2.00;;;;;;;;;;10203290;29;20839;-89
2022/07/30 22:16:10;;;;;;;2.40;1.70;;;;;;;;;;10202833;29;20422;-89
2022/07/30 22:21:12;;;;;;;2.28;2.03;;;;;;;;;;10203057;29;20469;-89
2022/07/30 22:26:14;;;;;;;2.28;1.98;;;;;;;;;;10203101;29;20478;-90
2022/07/30 22:31:18;;;;;;;2.60;1.80;;;;;;;;;;10202018;29;20813;-88
2022/07/30 22:36:20;;;;;;;2.05;1.73;;;;;;;;;;10202036;29;20441;-90
2022/07/30 22:41:22;;;;;;;2.40;1.85;;;;;;;;;;10202826;29;20445;-90
2022/07/30 22:46:25;;;;;;;2.30;2.00;;;;;;;;;;10202467;29;20497;-89
2022/07/30 22:51:27;;;;;;;2.30;2.10;;;;;;;;;;10201773;29;20465;-90
2022/07/30 22:56:29;;;;;;;2.78;2.03;;;;;;;;;;10200118;29;20433;-90
2022/07/30 23:01:33;;;;;;;2.67;2.17;;;;;;;;;;10201924;29;20469;-91
2022/07/30 23:06:35;;;;;;;2.90;2.10;;;;;;;;;;10201768;29;20451;-90
2022/07/30 23:11:37;;;;;;;2.87;2.10;;;;;;;;;;10202444;29;20461;-91
2022/07/30 23:16:41;;;;;;;3.28;2.20;;;;;;;;;;10207319;29;20440;-89
2022/07/30 23:21:43;;;;;;;3.55;3.00;;;;;;;;;;10212360;29;20434;-90
2022/07/30 23:26:46;;;;;;;3.78;2.80;;;;;;;;;;10217659;29;20410;-90
2022/07/30 23:31:50;;;;;;;3.38;3.08;;;;;;;;;;10200969;29;20469;-91
2022/07/30 23:36:52;;;;;;;3.08;2.67;;;;;;;;;;10200035;29;20697;-91
2022/07/30 23:41:54;;;;;;;6.28;3.08;;;;;;;;;;10201207;29;20449;-91
2022/07/30 23:46:57;;;;;;;3.22;2.90;;;;;;;;;;10207320;29;20450;-90
2022/07/30 23:51:59;;;;;;;3.78;2.58;;;;;;;;;;10200479;29;20898;-91
2022/07/30 23:57:02;;;;;;;2.63;2.43;;;;;;;;;;10200735;29;21119;-91
